createdAt,value
2023-06-24T00:00:02.443Z,99798.56
2023-06-24T00:01:08.723Z,99797.25
2023-06-24T00:02:10.980Z,99797.50
2023-06-24T00:03:13.346Z,99810.03
2023-06-24T00:04:16.184Z,99807.91
2023-06-24T00:05:18.086Z,99815.97
2023-06-24T00:06:21.018Z,99820.56
2023-06-24T00:07:23.449Z,99819.00
2023-06-24T00:08:35.405Z,99820.75
2023-06-24T00:09:37.373Z,99821.69
2023-06-24T00:10:39.381Z,99830.72
2023-06-24T00:11:41.342Z,99825.91
2023-06-24T00:12:43.579Z,99831.81
2023-06-24T00:13:45.787Z,99830.69
2023-06-24T00:14:48.784Z,99836.84
2023-06-24T00:15:50.661Z,99836.88
2023-06-24T00:16:52.769Z,99837.12
2023-06-24T00:17:54.978Z,99835.47
2023-06-24T00:19:02.526Z,99836.28
2023-06-24T00:20:12.293Z,99836.03
2023-06-24T00:21:14.228Z,99834.97
2023-06-24T00:22:16.397Z,99829.09
2023-06-24T00:23:25.705Z,99831.25
2023-06-24T00:24:27.587Z,99827.25
2023-06-24T00:25:31.002Z,99840.09
2023-06-24T00:26:33.327Z,99835.66
2023-06-24T00:27:35.286Z,99839.84
2023-06-24T00:28:37.544Z,99843.50
2023-06-24T00:29:39.425Z,99839.25
2023-06-24T00:30:41.334Z,99833.06
2023-06-24T00:31:43.340Z,99840.50
2023-06-24T00:32:46.195Z,99840.56
2023-06-24T00:33:48.985Z,99837.09
2023-06-24T00:34:52.552Z,99832.38
2023-06-24T00:35:55.793Z,99834.47
2023-06-24T00:36:57.643Z,99828.81
2023-06-24T00:37:59.814Z,99825.91
2023-06-24T00:39:06.513Z,99823.47
2023-06-24T00:40:17.088Z,99824.38
2023-06-24T00:41:19.968Z,99824.34
2023-06-24T00:42:21.949Z,99832.31
2023-06-24T00:43:23.872Z,99820.16
2023-06-24T00:44:26.031Z,99822.81
2023-06-24T00:45:27.954Z,99816.03
2023-06-24T00:46:30.001Z,99817.56
2023-06-24T00:47:35.785Z,99828.97
2023-06-24T00:48:38.011Z,99834.28
2023-06-24T00:49:40.180Z,99832.38
2023-06-24T00:50:46.681Z,99836.38
2023-06-24T00:51:51.464Z,99839.69
2023-06-24T00:52:53.714Z,99838.91
2023-06-24T00:53:55.573Z,99843.69
2023-06-24T00:54:57.907Z,99839.66
2023-06-24T00:56:03.966Z,99834.53
2023-06-24T00:57:06.905Z,99824.47
2023-06-24T00:58:09.433Z,99825.28
2023-06-24T00:59:14.412Z,99821.84
2023-06-24T01:00:19.640Z,99819.19
2023-06-24T01:01:22.023Z,99808.25
2023-06-24T01:02:29.159Z,99803.00
2023-06-24T01:03:31.857Z,99788.88
2023-06-24T01:04:34.714Z,99786.66
2023-06-24T01:05:37.470Z,99783.78
2023-06-24T01:06:44.837Z,99781.78
2023-06-24T01:07:55.750Z,99777.31
2023-06-24T01:09:01.567Z,99772.81
2023-06-24T01:10:07.294Z,99775.88
2023-06-24T01:11:10.085Z,99778.13
2023-06-24T01:12:11.997Z,99768.34
2023-06-24T01:13:13.940Z,99773.47
2023-06-24T01:14:21.147Z,99770.31
2023-06-24T01:15:23.989Z,99770.88
2023-06-24T01:16:52.618Z,99771.44
2023-06-24T01:18:03.926Z,99775.50
2023-06-24T01:19:26.866Z,99776.50
2023-06-24T01:20:37.175Z,99778.88
2023-06-24T01:22:14.366Z,99779.91
2023-06-24T01:23:38.868Z,99771.31
2023-06-24T01:24:51.889Z,99769.44
2023-06-24T01:26:17.786Z,99768.84
2023-06-24T01:27:23.661Z,99765.13
2023-06-24T01:28:57.959Z,99759.75
2023-06-24T01:30:28.238Z,99754.00
2023-06-24T01:31:49.480Z,99754.44
2023-06-24T01:33:09.736Z,99747.47
2023-06-24T01:34:20.683Z,99755.56
2023-06-24T01:35:26.831Z,99745.25
2023-06-24T01:36:34.645Z,99750.91
2023-06-24T01:37:41.508Z,99755.09
2023-06-24T01:38:53.067Z,99759.75
2023-06-24T01:40:01.637Z,99761.50
2023-06-24T01:41:05.614Z,99757.72
2023-06-24T01:42:15.629Z,99765.16
2023-06-24T01:43:18.859Z,99765.63
2023-06-24T01:44:22.156Z,99769.50
2023-06-24T01:45:30.166Z,99770.56
2023-06-24T01:46:32.305Z,99774.13
2023-06-24T01:47:36.222Z,99770.16
2023-06-24T01:48:43.409Z,99774.41
2023-06-24T01:49:46.936Z,99780.75
2023-06-24T01:51:10.845Z,99778.09
2023-06-24T01:52:14.381Z,99787.59
2023-06-24T01:53:18.276Z,99774.78
2023-06-24T01:54:23.704Z,99773.50
2023-06-24T01:55:27.649Z,99773.28
2023-06-24T01:56:30.860Z,99775.19
2023-06-24T01:57:34.276Z,99772.44
2023-06-24T01:58:37.064Z,99774.84
2023-06-24T01:59:42.042Z,99767.97
2023-06-24T02:00:44.532Z,99764.22
2023-06-24T02:01:47.191Z,99769.44
2023-06-24T02:02:50.920Z,99768.44
2023-06-24T02:03:54.516Z,99769.28
2023-06-24T02:04:57.407Z,99761.31
2023-06-24T02:06:00.595Z,99762.16
2023-06-24T02:07:04.713Z,99760.44
2023-06-24T02:08:09.503Z,99753.47
2023-06-24T02:09:12.634Z,99756.41
2023-06-24T02:10:15.824Z,99749.25
2023-06-24T02:11:21.672Z,99748.97
2023-06-24T02:12:27.092Z,99755.63
2023-06-24T02:13:33.601Z,99752.97
2023-06-24T02:14:37.814Z,99747.69
2023-06-24T02:15:41.298Z,99750.59
2023-06-24T02:16:45.889Z,99747.72
2023-06-24T02:17:51.929Z,99744.91
2023-06-24T02:18:56.130Z,99749.69
2023-06-24T02:19:59.931Z,99748.91
2023-06-24T02:21:04.437Z,99746.75
2023-06-24T02:22:10.851Z,99741.37
2023-06-24T02:23:14.369Z,99736.31
2023-06-24T02:24:16.349Z,99734.75
2023-06-24T02:25:18.399Z,99730.38
2023-06-24T02:26:21.427Z,99738.25
2023-06-24T02:27:24.270Z,99739.34
2023-06-24T02:28:26.695Z,99744.13
2023-06-24T02:29:30.136Z,99742.50
2023-06-24T02:30:33.527Z,99743.28
2023-06-24T02:31:35.729Z,99744.09
2023-06-24T02:32:39.448Z,99739.06
2023-06-24T02:33:41.744Z,99740.63
2023-06-24T02:34:43.981Z,99744.41
2023-06-24T02:35:47.172Z,99742.56
2023-06-24T02:36:49.311Z,99746.25
2023-06-24T02:37:51.259Z,99744.91
2023-06-24T02:38:53.170Z,99749.97
2023-06-24T02:39:55.183Z,99753.94
2023-06-24T02:40:57.685Z,99749.37
2023-06-24T02:42:00.227Z,99755.97
2023-06-24T02:43:02.114Z,99749.37
2023-06-24T02:44:05.281Z,99755.00
2023-06-24T02:45:08.107Z,99761.06
2023-06-24T02:46:12.882Z,99764.25
2023-06-24T02:47:18.097Z,99767.69
2023-06-24T02:48:22.182Z,99757.03
2023-06-24T02:49:24.730Z,99759.16
2023-06-24T02:50:27.827Z,99745.19
2023-06-24T02:51:31.344Z,99743.56
2023-06-24T02:52:34.362Z,99739.06
2023-06-24T02:53:38.244Z,99736.72
2023-06-24T02:54:41.225Z,99736.75
2023-06-24T02:55:45.976Z,99740.66
2023-06-24T02:56:49.596Z,99749.69
2023-06-24T02:57:54.383Z,99749.19
2023-06-24T02:58:58.525Z,99739.22
2023-06-24T03:00:00.772Z,99740.50
2023-06-24T03:01:08.119Z,99745.78
2023-06-24T03:02:11.696Z,99738.41
2023-06-24T03:03:14.109Z,99736.47
2023-06-24T03:04:16.674Z,99739.88
2023-06-24T03:05:19.704Z,99747.31
2023-06-24T03:06:22.861Z,99740.66
2023-06-24T03:07:26.358Z,99746.06
2023-06-24T03:08:29.189Z,99757.19
2023-06-24T03:09:35.428Z,99756.06
2023-06-24T03:10:38.948Z,99766.63
2023-06-24T03:11:42.790Z,99775.13
2023-06-24T03:12:45.269Z,99783.62
2023-06-24T03:13:48.399Z,99778.38
2023-06-24T03:14:50.458Z,99789.47
2023-06-24T03:15:53.078Z,99787.34
2023-06-24T03:16:58.398Z,99784.97
2023-06-24T03:18:01.178Z,99789.66
2023-06-24T03:19:03.541Z,99786.47
2023-06-24T03:20:06.640Z,99795.78
2023-06-24T03:21:09.821Z,99797.13
2023-06-24T03:22:12.101Z,99789.47
2023-06-24T03:23:14.529Z,99793.69
2023-06-24T03:24:16.983Z,99799.03
2023-06-24T03:25:19.438Z,99792.38
2023-06-24T03:26:22.751Z,99795.31
2023-06-24T03:27:25.145Z,99795.81
2023-06-24T03:28:27.748Z,99793.19
2023-06-24T03:29:30.726Z,99794.22
2023-06-24T03:30:33.218Z,99789.50
2023-06-24T03:31:35.279Z,99793.22
2023-06-24T03:32:37.475Z,99800.59
2023-06-24T03:33:39.825Z,99797.97
2023-06-24T03:34:42.190Z,99798.78
2023-06-24T03:35:44.773Z,99801.69
2023-06-24T03:36:47.503Z,99800.06
2023-06-24T03:37:50.297Z,99799.81
2023-06-24T03:38:52.711Z,99803.28
2023-06-24T03:39:57.427Z,99791.06
2023-06-24T03:41:00.189Z,99799.34
2023-06-24T03:42:02.745Z,99795.09
2023-06-24T03:43:04.713Z,99792.19
2023-06-24T03:44:06.640Z,99795.87
2023-06-24T03:45:09.561Z,99789.53
2023-06-24T03:46:12.032Z,99803.81
2023-06-24T03:47:14.058Z,99801.44
2023-06-24T03:48:16.520Z,99803.28
2023-06-24T03:49:19.123Z,99816.03
2023-06-24T03:50:21.440Z,99818.69
2023-06-24T03:51:23.736Z,99816.53
2023-06-24T03:52:26.072Z,99829.75
2023-06-24T03:53:28.374Z,99816.50
2023-06-24T03:54:30.786Z,99817.03
2023-06-24T03:55:33.200Z,99818.69
2023-06-24T03:56:35.330Z,99817.91
2023-06-24T03:57:37.320Z,99815.75
2023-06-24T03:58:39.186Z,99819.69
2023-06-24T03:59:41.094Z,99821.56
2023-06-24T04:00:44.199Z,99819.69
2023-06-24T04:01:46.479Z,99832.44
2023-06-24T04:02:48.477Z,99828.69
2023-06-24T04:03:50.463Z,99824.19
2023-06-24T04:04:53.238Z,99827.63
2023-06-24T04:05:56.550Z,99836.09
2023-06-24T04:06:58.761Z,99831.25
2023-06-24T04:08:00.782Z,99831.88
2023-06-24T04:09:03.536Z,99830.50
2023-06-24T04:10:09.392Z,99826.25
2023-06-24T04:11:12.830Z,99825.44
2023-06-24T04:12:15.109Z,99827.56
2023-06-24T04:13:17.040Z,99828.31
2023-06-24T04:14:19.081Z,99830.22
2023-06-24T04:15:20.913Z,99829.19
2023-06-24T04:16:23.110Z,99828.63
2023-06-24T04:17:25.337Z,99828.06
2023-06-24T04:18:27.337Z,99831.16
2023-06-24T04:19:30.230Z,99828.25
2023-06-24T04:20:32.177Z,99827.19
2023-06-24T04:21:34.320Z,99823.78
2023-06-24T04:22:41.257Z,99829.09
2023-06-24T04:23:43.175Z,99833.34
2023-06-24T04:24:45.452Z,99830.91
2023-06-24T04:25:47.451Z,99828.56
2023-06-24T04:26:49.300Z,99826.44
2023-06-24T04:27:53.142Z,99833.37
2023-06-24T04:28:55.221Z,99838.19
2023-06-24T04:29:58.419Z,99841.28
2023-06-24T04:31:00.603Z,99838.66
2023-06-24T04:32:02.607Z,99834.34
2023-06-24T04:33:04.974Z,99833.75
2023-06-24T04:34:06.886Z,99832.72
2023-06-24T04:35:09.974Z,99836.94
2023-06-24T04:36:12.173Z,99838.81
2023-06-24T04:37:14.084Z,99835.28
2023-06-24T04:38:19.460Z,99832.66
2023-06-24T04:39:21.794Z,99830.63
2023-06-24T04:40:23.781Z,99822.09
2023-06-24T04:41:26.612Z,99832.66
2023-06-24T04:42:28.510Z,99828.09
2023-06-24T04:43:30.696Z,99833.94
2023-06-24T04:44:32.511Z,99828.94
2023-06-24T04:45:35.434Z,99824.13
2023-06-24T04:46:38.559Z,99825.66
2023-06-24T04:47:40.603Z,99830.97
2023-06-24T04:48:42.762Z,99832.38
2023-06-24T04:49:44.971Z,99835.03
2023-06-24T04:50:46.817Z,99834.59
2023-06-24T04:51:48.795Z,99836.94
2023-06-24T04:52:55.354Z,99842.72
2023-06-24T04:53:57.567Z,99845.62
2023-06-24T04:54:59.423Z,99844.41
2023-06-24T04:56:01.650Z,99847.75
2023-06-24T04:57:03.795Z,99846.16
2023-06-24T04:58:05.731Z,99848.50
2023-06-24T04:59:07.942Z,99849.31
2023-06-24T05:00:10.281Z,99844.06
2023-06-24T05:01:12.206Z,99844.69
2023-06-24T05:02:14.069Z,99846.72
2023-06-24T05:03:15.919Z,99837.84
2023-06-24T05:04:18.087Z,99842.31
2023-06-24T05:05:21.748Z,99838.63
2023-06-24T05:06:24.257Z,99839.94
2023-06-24T05:07:26.282Z,99841.72
2023-06-24T05:08:28.197Z,99833.00
2023-06-24T05:09:30.339Z,99837.75
2023-06-24T05:10:32.170Z,99844.00
2023-06-24T05:11:34.077Z,99848.13
2023-06-24T05:12:35.911Z,99842.38
2023-06-24T05:13:38.535Z,99841.28
2023-06-24T05:14:40.794Z,99844.16
2023-06-24T05:15:42.679Z,99846.69
2023-06-24T05:16:45.624Z,99853.06
2023-06-24T05:17:47.532Z,99852.88
2023-06-24T05:18:49.424Z,99848.63
2023-06-24T05:19:51.557Z,99851.69
2023-06-24T05:20:53.720Z,99856.87
2023-06-24T05:21:55.669Z,99854.00
2023-06-24T05:22:57.560Z,99851.06
2023-06-24T05:23:59.452Z,99853.06
2023-06-24T05:25:01.666Z,99846.28
2023-06-24T05:26:04.236Z,99847.97
2023-06-24T05:27:07.406Z,99847.16
2023-06-24T05:28:09.258Z,99854.75
2023-06-24T05:29:11.477Z,99854.94
2023-06-24T05:30:15.282Z,99858.59
2023-06-24T05:31:17.152Z,99868.09
2023-06-24T05:32:21.363Z,99866.69
2023-06-24T05:33:23.413Z,99882.22
2023-06-24T05:34:25.380Z,99879.63
2023-06-24T05:35:27.622Z,99877.97
2023-06-24T05:36:29.515Z,99877.41
2023-06-24T05:37:31.372Z,99871.72
2023-06-24T05:38:33.268Z,99872.88
2023-06-24T05:39:35.122Z,99878.78
2023-06-24T05:40:37.318Z,99876.12
2023-06-24T05:41:39.420Z,99882.56
2023-06-24T05:42:41.284Z,99869.13
2023-06-24T05:43:44.919Z,99876.47
2023-06-24T05:44:46.746Z,99877.19
2023-06-24T05:45:48.956Z,99879.63
2023-06-24T05:46:51.113Z,99872.37
2023-06-24T05:47:53.006Z,99885.84
2023-06-24T05:48:54.866Z,99881.16
2023-06-24T05:49:56.732Z,99884.56
2023-06-24T05:50:58.887Z,99885.06
2023-06-24T05:52:00.776Z,99880.81
2023-06-24T05:53:02.639Z,99882.03
2023-06-24T05:54:04.746Z,99880.75
2023-06-24T05:55:06.878Z,99884.56
2023-06-24T05:56:09.011Z,99884.03
2023-06-24T05:57:11.725Z,99889.56
2023-06-24T05:58:13.626Z,99883.84
2023-06-24T05:59:15.489Z,99880.91
2023-06-24T06:00:19.311Z,99879.50
2023-06-24T06:01:21.434Z,99876.22
2023-06-24T06:02:23.354Z,99877.56
2023-06-24T06:03:25.254Z,99890.88
2023-06-24T06:04:27.135Z,99882.69
2023-06-24T06:05:28.968Z,99883.47
2023-06-24T06:06:31.144Z,99885.59
2023-06-24T06:07:33.282Z,99890.94
2023-06-24T06:08:35.471Z,99891.97
2023-06-24T06:09:37.402Z,99894.56
2023-06-24T06:10:39.237Z,99901.13
2023-06-24T06:11:41.416Z,99894.97
2023-06-24T06:12:43.290Z,99908.53
2023-06-24T06:13:45.223Z,99899.25
2023-06-24T06:14:47.107Z,99900.50
2023-06-24T06:15:49.057Z,99897.81
2023-06-24T06:16:51.215Z,99899.75
2023-06-24T06:17:53.555Z,99903.72
2023-06-24T06:18:55.437Z,99907.03
2023-06-24T06:19:57.304Z,99904.84
2023-06-24T06:20:59.170Z,99905.34
2023-06-24T06:22:01.400Z,99903.50
2023-06-24T06:23:03.345Z,99907.97
2023-06-24T06:24:05.826Z,99901.72
2023-06-24T06:25:08.436Z,99910.50
2023-06-24T06:26:10.488Z,99905.47
2023-06-24T06:27:13.904Z,99917.22
2023-06-24T06:28:15.811Z,99913.41
2023-06-24T06:29:17.705Z,99919.69
2023-06-24T06:30:19.760Z,99920.84
2023-06-24T06:31:22.499Z,99920.19
2023-06-24T06:32:24.734Z,99919.53
2023-06-24T06:33:26.586Z,99918.44
2023-06-24T06:34:28.430Z,99913.97
2023-06-24T06:35:30.375Z,99923.63
2023-06-24T06:36:32.387Z,99910.66
2023-06-24T06:37:34.570Z,99914.28
2023-06-24T06:38:36.432Z,99919.88
2023-06-24T06:39:38.309Z,99916.56
2023-06-24T06:40:40.193Z,99928.91
2023-06-24T06:41:42.046Z,99927.44
2023-06-24T06:42:50.970Z,99936.41
2023-06-24T06:43:53.533Z,99931.91
2023-06-24T06:44:55.445Z,99934.44
2023-06-24T06:45:57.424Z,99936.50
2023-06-24T06:46:59.381Z,99933.94
2023-06-24T06:48:01.631Z,99935.47
2023-06-24T06:49:03.515Z,99940.53
2023-06-24T06:50:05.995Z,99934.25
2023-06-24T06:51:07.958Z,99932.66
2023-06-24T06:52:09.875Z,99932.28
2023-06-24T06:53:12.037Z,99942.56
2023-06-24T06:54:13.881Z,99932.44
2023-06-24T06:55:15.908Z,99933.53
2023-06-24T06:56:19.454Z,99939.09
2023-06-24T06:57:21.349Z,99939.09
2023-06-24T06:58:23.582Z,99941.88
2023-06-24T06:59:25.501Z,99943.28
2023-06-24T07:00:27.388Z,99939.03
2023-06-24T07:01:29.306Z,99943.88
2023-06-24T07:02:31.253Z,99935.75
2023-06-24T07:03:33.440Z,99936.75
2023-06-24T07:04:35.367Z,99930.84
2023-06-24T07:05:39.080Z,99931.03
2023-06-24T07:06:41.636Z,99927.66
2023-06-24T07:07:46.333Z,99928.47
2023-06-24T07:08:48.573Z,99925.31
2023-06-24T07:09:50.458Z,99930.25
2023-06-24T07:10:52.350Z,99933.41
2023-06-24T07:11:54.245Z,99937.03
2023-06-24T07:12:59.147Z,99930.13
2023-06-24T07:14:01.317Z,99932.31
2023-06-24T07:15:03.412Z,99937.72
2023-06-24T07:16:05.360Z,99936.94
2023-06-24T07:17:08.089Z,99940.37
2023-06-24T07:18:09.922Z,99930.75
2023-06-24T07:19:12.177Z,99939.28
2023-06-24T07:20:14.124Z,99938.09
2023-06-24T07:21:15.974Z,99933.78
2023-06-24T07:22:17.828Z,99937.81
2023-06-24T07:23:19.691Z,99936.75
2023-06-24T07:24:21.864Z,99929.91
2023-06-24T07:25:23.741Z,99930.81
2023-06-24T07:26:25.642Z,99930.25
2023-06-24T07:27:27.489Z,99932.00
2023-06-24T07:28:29.314Z,99932.72
2023-06-24T07:29:31.494Z,99934.72
2023-06-24T07:30:33.402Z,99932.66
2023-06-24T07:31:38.493Z,99941.66
2023-06-24T07:32:40.625Z,99934.47
2023-06-24T07:33:42.480Z,99938.47
2023-06-24T07:34:44.598Z,99929.25
2023-06-24T07:35:46.472Z,99936.62
2023-06-24T07:36:48.453Z,99927.97
2023-06-24T07:37:50.375Z,99938.16
2023-06-24T07:38:52.324Z,99926.31
2023-06-24T07:39:54.470Z,99925.53
2023-06-24T07:40:56.658Z,99935.19
2023-06-24T07:41:58.641Z,99933.69
2023-06-24T07:43:00.487Z,99933.09
2023-06-24T07:44:02.968Z,99940.97
2023-06-24T07:45:05.744Z,99935.69
2023-06-24T07:46:08.003Z,99947.28
2023-06-24T07:47:09.964Z,99943.28
2023-06-24T07:48:11.873Z,99942.78
2023-06-24T07:49:13.873Z,99939.03
2023-06-24T07:50:16.221Z,99944.09
2023-06-24T07:51:19.250Z,99941.53
2023-06-24T07:52:21.239Z,99941.00
2023-06-24T07:53:23.069Z,99944.62
2023-06-24T07:54:24.937Z,99945.00
2023-06-24T07:55:27.296Z,99952.81
2023-06-24T07:56:29.248Z,99952.25
2023-06-24T07:57:31.465Z,99947.69
2023-06-24T07:58:34.663Z,99953.84
2023-06-24T07:59:36.567Z,99952.63
2023-06-24T08:00:39.965Z,99948.34
2023-06-24T08:01:42.224Z,99954.34
2023-06-24T08:02:44.350Z,99949.47
2023-06-24T08:03:46.409Z,99945.97
2023-06-24T08:04:48.475Z,99951.78
2023-06-24T08:05:51.181Z,99948.16
2023-06-24T08:06:53.729Z,99944.69
2023-06-24T08:07:55.901Z,99945.47
2023-06-24T08:08:57.956Z,99944.72
2023-06-24T08:09:59.845Z,99946.09
2023-06-24T08:11:01.741Z,99946.72
2023-06-24T08:12:04.255Z,99948.81
2023-06-24T08:13:06.139Z,99950.56
2023-06-24T08:14:08.169Z,99944.88
2023-06-24T08:15:10.577Z,99942.81
2023-06-24T08:16:12.442Z,99939.34
2023-06-24T08:17:14.663Z,99940.31
2023-06-24T08:18:16.637Z,99940.16
2023-06-24T08:19:18.480Z,99950.25
2023-06-24T08:20:24.055Z,99944.44
2023-06-24T08:21:26.054Z,99950.38
2023-06-24T08:22:28.189Z,99949.94
2023-06-24T08:23:30.102Z,99954.19
2023-06-24T08:24:32.950Z,99941.72
2023-06-24T08:25:35.074Z,99945.97
2023-06-24T08:26:37.190Z,99954.66
2023-06-24T08:27:39.775Z,99951.28
2023-06-24T08:28:41.667Z,99959.56
2023-06-24T08:29:43.569Z,99946.91
2023-06-24T08:30:45.424Z,99958.94
2023-06-24T08:31:47.281Z,99953.50
2023-06-24T08:32:49.514Z,99950.38
2023-06-24T08:33:54.479Z,99950.06
2023-06-24T08:34:56.355Z,99945.97
2023-06-24T08:35:58.196Z,99954.91
2023-06-24T08:37:00.107Z,99953.03
2023-06-24T08:38:02.240Z,99949.03
2023-06-24T08:39:04.251Z,99954.25
2023-06-24T08:40:06.832Z,99956.91
2023-06-24T08:41:08.921Z,99950.59
2023-06-24T08:42:10.830Z,99957.41
2023-06-24T08:43:13.094Z,99956.31
2023-06-24T08:44:15.789Z,99955.50
2023-06-24T08:45:17.729Z,99962.06
2023-06-24T08:46:21.292Z,99962.44
2023-06-24T08:47:25.713Z,99953.41
2023-06-24T08:48:29.576Z,99960.44
2023-06-24T08:49:32.573Z,99953.41
2023-06-24T08:50:37.772Z,99954.47
2023-06-24T08:51:42.792Z,99954.91
2023-06-24T08:52:54.277Z,99953.03
2023-06-24T08:54:04.428Z,99958.50
2023-06-24T08:55:08.217Z,99952.22
2023-06-24T08:56:11.143Z,99956.13
2023-06-24T08:57:15.825Z,99944.28
2023-06-24T08:58:17.833Z,99952.94
2023-06-24T08:59:21.263Z,99950.56
2023-06-24T09:00:23.418Z,99943.56
2023-06-24T09:01:28.296Z,99947.13
2023-06-24T09:02:34.040Z,99941.03
2023-06-24T09:03:36.796Z,99949.34
2023-06-24T09:04:39.311Z,99941.94
2023-06-24T09:05:41.138Z,99941.94
2023-06-24T09:06:43.078Z,99939.47
2023-06-24T09:07:44.950Z,99942.50
2023-06-24T09:08:57.053Z,99942.56
2023-06-24T09:09:59.320Z,99939.69
2023-06-24T09:11:01.205Z,99932.53
2023-06-24T09:12:03.332Z,99939.91
2023-06-24T09:13:07.597Z,99944.25
2023-06-24T09:14:13.196Z,99942.69
2023-06-24T09:15:16.887Z,99940.13
2023-06-24T09:16:18.746Z,99945.19
2023-06-24T09:17:23.492Z,99943.62
2023-06-24T09:18:33.052Z,99942.81
2023-06-24T09:19:37.313Z,99937.91
2023-06-24T09:20:45.963Z,99945.09
2023-06-24T09:21:47.840Z,99944.38
2023-06-24T09:22:50.461Z,99947.84
2023-06-24T09:23:54.826Z,99952.94
2023-06-24T09:24:56.713Z,99960.97
2023-06-24T09:25:59.186Z,99948.81
2023-06-24T09:27:01.655Z,99955.28
2023-06-24T09:28:04.401Z,99953.03
2023-06-24T09:29:06.670Z,99953.94
2023-06-24T09:30:22.380Z,99954.84
2023-06-24T09:31:25.292Z,99962.72
2023-06-24T09:32:36.018Z,99956.75
2023-06-24T09:33:37.867Z,99957.53
2023-06-24T09:34:40.090Z,99958.16
2023-06-24T09:35:43.356Z,99967.12
2023-06-24T09:36:51.806Z,99955.16
2023-06-24T09:37:55.579Z,99963.19
2023-06-24T09:39:11.609Z,99963.44
2023-06-24T09:40:20.564Z,99966.34
2023-06-24T09:41:22.528Z,99962.09
2023-06-24T09:42:24.701Z,99965.91
2023-06-24T09:43:27.494Z,99965.13
2023-06-24T09:44:29.851Z,99961.47
2023-06-24T09:45:31.785Z,99959.28
2023-06-24T09:46:36.117Z,99961.47
2023-06-24T09:47:38.504Z,99957.81
2023-06-24T09:48:40.616Z,99956.56
2023-06-24T09:49:42.689Z,99959.91
2023-06-24T09:50:44.784Z,99951.25
2023-06-24T09:51:48.636Z,99958.41
2023-06-24T09:52:51.860Z,99952.91
2023-06-24T09:53:55.743Z,99957.47
2023-06-24T09:55:00.872Z,99952.28
2023-06-24T09:56:05.522Z,99958.91
2023-06-24T09:57:08.780Z,99954.19
2023-06-24T09:58:12.672Z,99957.34
2023-06-24T09:59:15.969Z,99952.50
2023-06-24T10:00:20.471Z,99955.59
2023-06-24T10:01:23.285Z,99958.75
2023-06-24T10:02:25.953Z,99951.81
2023-06-24T10:03:28.233Z,99948.00
2023-06-24T10:04:31.031Z,99949.44
2023-06-24T10:05:33.350Z,99954.91
2023-06-24T10:06:35.963Z,99950.59
2023-06-24T10:07:38.904Z,99947.09
2023-06-24T10:08:40.963Z,99947.56
2023-06-24T10:09:44.174Z,99948.88
2023-06-24T10:10:46.462Z,99948.47
2023-06-24T10:11:48.803Z,99948.56
2023-06-24T10:12:50.756Z,99940.56
2023-06-24T10:13:53.474Z,99941.84
2023-06-24T10:14:55.840Z,99941.84
2023-06-24T10:15:58.351Z,99936.78
2023-06-24T10:17:05.175Z,99941.03
2023-06-24T10:18:31.752Z,99930.59
2023-06-24T10:19:42.793Z,99923.34
2023-06-24T10:20:49.101Z,99923.84
2023-06-24T10:21:55.676Z,99919.78
2023-06-24T10:22:59.758Z,99917.66
2023-06-24T10:24:05.113Z,99911.19
2023-06-24T10:25:08.886Z,99918.13
2023-06-24T10:26:12.319Z,99918.19
2023-06-24T10:27:24.995Z,99919.31
2023-06-24T10:28:27.199Z,99919.72
2023-06-24T10:29:37.235Z,99916.87
2023-06-24T10:30:39.205Z,99920.62
2023-06-24T10:31:41.241Z,99916.03
2023-06-24T10:32:44.066Z,99918.84
2023-06-24T10:33:54.118Z,99921.00
2023-06-24T10:34:57.895Z,99925.75
2023-06-24T10:36:01.844Z,99922.72
2023-06-24T10:37:15.607Z,99928.03
2023-06-24T10:38:17.448Z,99918.28
2023-06-24T10:39:53.475Z,99928.62
2023-06-24T10:40:55.413Z,99922.63
2023-06-24T10:41:57.273Z,99920.97
2023-06-24T10:43:01.838Z,99924.69
2023-06-24T10:44:16.174Z,99924.44
2023-06-24T10:45:20.116Z,99919.66
2023-06-24T10:46:22.020Z,99923.00
2023-06-24T10:47:25.080Z,99918.53
2023-06-24T10:48:26.959Z,99921.06
2023-06-24T10:49:29.040Z,99918.81
2023-06-24T10:50:31.393Z,99917.03
2023-06-24T10:51:33.304Z,99917.44
2023-06-24T10:52:40.358Z,99915.84
2023-06-24T10:53:42.203Z,99923.50
2023-06-24T10:54:44.064Z,99914.38
2023-06-24T10:55:49.717Z,99914.06
2023-06-24T10:56:54.432Z,99905.81
2023-06-24T10:58:11.474Z,99900.00
2023-06-24T10:59:14.802Z,99907.63
2023-06-24T11:00:17.071Z,99903.63
2023-06-24T11:01:19.274Z,99916.84
2023-06-24T11:02:23.017Z,99913.03
2023-06-24T11:03:25.355Z,99917.94
2023-06-24T11:04:27.360Z,99924.50
2023-06-24T11:05:32.234Z,99919.13
2023-06-24T11:06:34.426Z,99920.97
2023-06-24T11:07:38.951Z,99925.63
2023-06-24T11:08:48.064Z,99922.28
2023-06-24T11:09:52.061Z,99917.47
2023-06-24T11:10:54.058Z,99910.78
2023-06-24T11:11:56.226Z,99919.47
2023-06-24T11:12:59.542Z,99913.91
2023-06-24T11:14:03.885Z,99912.59
2023-06-24T11:15:06.967Z,99912.75
2023-06-24T11:16:08.821Z,99921.09
2023-06-24T11:17:11.087Z,99910.16
2023-06-24T11:18:12.961Z,99923.50
2023-06-24T11:19:14.892Z,99919.22
2023-06-24T11:20:17.011Z,99925.19
2023-06-24T11:21:18.945Z,99917.16
2023-06-24T11:22:21.698Z,99908.91
2023-06-24T11:23:23.600Z,99920.00
2023-06-24T11:24:25.462Z,99910.19
2023-06-24T11:25:27.328Z,99910.47
2023-06-24T11:26:29.280Z,99910.16
2023-06-24T11:27:32.548Z,99910.69
2023-06-24T11:28:34.476Z,99913.09
2023-06-24T11:29:36.740Z,99908.09
2023-06-24T11:30:38.987Z,99912.63
2023-06-24T11:31:41.098Z,99905.56
2023-06-24T11:32:45.092Z,99903.97
2023-06-24T11:33:50.313Z,99904.16
2023-06-24T11:34:52.386Z,99907.09
2023-06-24T11:35:54.274Z,99900.59
2023-06-24T11:36:56.259Z,99896.97
2023-06-24T11:37:59.547Z,99905.69
2023-06-24T11:39:01.451Z,99903.75
2023-06-24T11:40:08.127Z,99896.28
2023-06-24T11:41:10.228Z,99892.72
2023-06-24T11:42:13.109Z,99901.91
2023-06-24T11:43:15.331Z,99892.50
2023-06-24T11:44:19.822Z,99890.47
2023-06-24T11:45:23.030Z,99880.78
2023-06-24T11:46:28.949Z,99884.19
2023-06-24T11:47:37.481Z,99876.84
2023-06-24T11:48:42.529Z,99874.75
2023-06-24T11:49:56.073Z,99873.44
2023-06-24T11:50:57.932Z,99865.34
2023-06-24T11:51:59.804Z,99866.22
2023-06-24T11:53:01.677Z,99861.59
2023-06-24T11:54:06.178Z,99858.59
2023-06-24T11:55:21.628Z,99862.84
2023-06-24T11:56:44.708Z,99861.34
2023-06-24T11:57:55.576Z,99862.81
2023-06-24T11:58:58.469Z,99859.03
2023-06-24T12:00:00.651Z,99856.91
2023-06-24T12:01:03.000Z,99858.03
2023-06-24T12:02:05.369Z,99858.97
2023-06-24T12:03:11.091Z,99871.75
2023-06-24T12:04:14.957Z,99866.41
2023-06-24T12:05:29.943Z,99868.19
2023-06-24T12:06:32.450Z,99875.34
2023-06-24T12:07:35.155Z,99870.31
2023-06-24T12:08:51.431Z,99864.44
2023-06-24T12:09:54.291Z,99867.84
2023-06-24T12:10:56.326Z,99853.59
2023-06-24T12:11:59.115Z,99857.38
2023-06-24T12:13:02.371Z,99850.41
2023-06-24T12:14:04.805Z,99845.50
2023-06-24T12:15:09.041Z,99843.25
2023-06-24T12:16:11.781Z,99842.25
2023-06-24T12:17:14.689Z,99839.13
2023-06-24T12:18:17.106Z,99839.88
2023-06-24T12:19:19.065Z,99838.06
2023-06-24T12:20:21.174Z,99835.16
2023-06-24T12:21:23.069Z,99832.91
2023-06-24T12:22:24.888Z,99831.34
2023-06-24T12:23:27.015Z,99841.97
2023-06-24T12:24:28.892Z,99838.47
2023-06-24T12:25:30.747Z,99839.78
2023-06-24T12:26:33.004Z,99839.28
2023-06-24T12:27:35.144Z,99843.28